createdAt,value
2018-09-22T09:32:08.263Z,18.21
2018-09-22T09:34:38.164Z,18.10
2018-09-22T09:37:07.377Z,18.03
2018-09-22T09:39:36.863Z,18.02
2018-09-22T09:42:05.704Z,17.99
2018-09-22T09:44:36.146Z,18.00
2018-09-22T09:47:06.920Z,18.06
2018-09-22T09:49:36.100Z,18.06
2018-09-22T09:52:08.201Z,18.04
2018-09-22T09:54:38.181Z,18.10
2018-09-22T09:57:08.943Z,18.16
2018-09-22T09:59:38.998Z,18.17
2018-09-22T10:02:09.182Z,18.20
2018-09-22T10:04:38.342Z,18.20
2018-09-22T10:07:11.463Z,18.09
2018-09-22T10:09:41.009Z,18.05
2018-09-22T10:12:10.510Z,18.03
2018-09-22T10:14:40.845Z,18.01
2018-09-22T10:17:10.714Z,17.96
2018-09-22T10:19:43.506Z,17.90
2018-09-22T10:22:15.330Z,17.80
2018-09-22T10:24:44.295Z,17.78
2018-09-22T10:27:14.302Z,17.75
2018-09-22T10:29:45.299Z,17.71
2018-09-22T10:32:14.714Z,17.71
2018-09-22T10:34:44.366Z,17.72
2018-09-22T10:37:14.736Z,17.77
2018-09-22T10:39:44.515Z,17.83
2018-09-22T10:42:13.372Z,17.91
2018-09-22T10:44:43.238Z,18.03
2018-09-22T10:47:12.623Z,18.12
2018-09-22T10:49:43.092Z,18.12
2018-09-22T10:52:12.810Z,18.19
2018-09-22T10:54:44.574Z,18.31
2018-09-22T10:57:14.796Z,18.42
2018-09-22T10:59:44.979Z,18.54
2018-09-22T11:02:15.780Z,18.68
2018-09-22T11:04:45.323Z,18.80
2018-09-22T11:07:15.653Z,18.90
2018-09-22T11:09:44.468Z,19.01
2018-09-22T11:21:31.733Z,18.57
2018-09-22T11:26:37.839Z,18.39
2018-09-22T11:29:06.670Z,18.27
2018-09-22T11:31:37.107Z,18.17
2018-09-22T11:34:06.574Z,18.10
2018-09-22T11:36:36.694Z,18.08
2018-09-22T11:39:08.885Z,18.08
2018-09-22T11:41:38.178Z,18.10
2018-09-22T11:44:27.952Z,18.12
2018-09-22T11:46:57.543Z,18.14
2018-09-22T11:49:27.954Z,18.11
2018-09-22T11:52:02.424Z,18.09
2018-09-22T11:54:36.108Z,18.10
2018-09-22T11:57:05.592Z,18.07
2018-09-22T11:59:36.748Z,18.01
2018-09-22T12:02:05.703Z,18.00
2018-09-22T12:04:38.383Z,17.97
2018-09-22T12:07:08.250Z,17.93
2018-09-22T12:09:38.162Z,17.87
2018-09-22T12:12:11.972Z,17.74
2018-09-22T12:14:42.128Z,17.62
2018-09-22T12:17:11.322Z,17.48
2018-09-22T12:19:40.515Z,17.42
2018-09-22T12:22:11.152Z,17.35
2018-09-22T12:24:40.783Z,17.26
2018-09-22T12:27:10.280Z,17.21
2018-09-22T12:29:43.315Z,17.20
2018-09-22T12:32:18.798Z,17.16
2018-09-22T12:34:48.344Z,17.21
2018-09-22T12:37:17.070Z,17.28
2018-09-22T12:39:45.754Z,17.32
2018-09-22T12:42:17.866Z,17.34
2018-09-22T12:44:47.615Z,17.10
2018-09-22T12:47:16.874Z,16.87
2018-09-22T12:50:01.084Z,16.65
2018-09-22T12:52:39.028Z,16.39
2018-09-22T12:55:08.332Z,16.17
2018-09-22T12:57:38.630Z,15.91
2018-09-22T13:00:08.160Z,15.70
2018-09-22T13:02:37.992Z,15.45
2018-09-22T13:05:07.820Z,15.24
2018-09-22T13:07:38.053Z,15.02
2018-09-22T13:10:09.569Z,14.88
2018-09-22T13:12:49.442Z,14.82
2018-09-22T13:15:24.350Z,14.76
2018-09-22T13:17:55.486Z,14.66
2018-09-22T13:20:25.291Z,14.57
2018-09-22T13:22:55.934Z,14.49
2018-09-22T13:25:24.514Z,14.44
2018-09-22T13:27:53.958Z,14.45
2018-09-22T13:30:24.222Z,14.43
2018-09-22T20:14:03.905Z,12.42
2018-09-22T20:16:33.454Z,12.45
2018-09-22T20:19:02.648Z,12.47
2018-09-22T20:21:32.310Z,12.50
2018-09-22T20:24:03.033Z,12.52
2018-09-22T20:26:32.734Z,12.54
2018-09-22T20:29:02.306Z,12.57
2018-09-22T20:31:33.825Z,12.58
2018-09-22T20:34:06.519Z,12.59
2018-09-22T21:34:09.320Z,12.26
2018-09-22T21:36:38.113Z,12.27
2018-09-22T21:39:15.912Z,12.29
